• Join FlightAware (Why Join?)
  • Login
  • US Flag 
03:49AM EDT


 

Airport Tracker/Info


-or-


 

Live Flight TrackerFlight Track Log ✈ SBE607 ✈ 10-Mar-2014 ✈ KICT - KOPF

Flight Track Log - Related Links

Times and Time Zones

All times are in EDT time to prevent confusion due to time zone crossing. See the SBE607 flight status page for this flight to view local times or setup timezone preferences in your user account.

Time Position Orientation Groundspeed Altitude Reporting Facility
EDT Latitude Longitude Course Direction KTS MPH feet Rate Location/Type
05:05PM 37.6406 -97.4278 192° South 173 199 1,900  Level Kansas City Center
05:06PM 37.5914 -97.4406 186° South 202 232 4,200 3,180 Climbing Kansas City Center
05:07PM 37.5431 -97.3517 124° Southeast 253 291 8,900 3,540 Climbing Kansas City Center
05:08PM 37.5131 -97.2608 113° Southeast 276 318 12,300 3,000 Climbing Kansas City Center
05:09PM 37.4794 -97.1506 111° Southeast 334 384 15,100 3,000 Climbing Kansas City Center
05:10PM 37.4414 -97.0336 112° Southeast 357 411 18,500 2,880 Climbing Kansas City Center
05:11PM 37.4036 -96.9108 111° Southeast 372 428 21,100 2,100 Climbing Kansas City Center
05:13PM 37.3450 -96.7906 121° Southeast 395 455 22,900 1,080 Climbing Kansas City Center
05:14PM 37.2636 -96.6300 122° Southeast 439 505 23,400 1,560 Climbing Kansas City Center
05:15PM 37.1953 -96.4950 122° Southeast 457 526 26,200 2,280 Climbing Kansas City Center
05:16PM 37.1269 -96.3608 123° Southeast 453 521 28,200 2,160 Climbing Kansas City Center
05:17PM 37.0597 -96.2286 122° Southeast 453 521 30,700 2,460 Climbing Kansas City Center
05:18PM 36.9928 -96.1003 123° Southeast 444 511 33,400 2,460 Climbing Kansas City Center
05:19PM 36.9292 -95.9742 122° Southeast 433 498 35,900 1,680 Climbing Kansas City Center
05:20PM 36.8683 -95.8447 120° Southeast 433 498 37,000 480 Climbing Kansas City Center
05:21PM 36.7917 -95.6792 120° Southeast 451 519 37,000  Level Kansas City Center
05:22PM 36.7264 -95.5397 120° Southeast 460 529 37,000 300 Level Kansas City Center
05:23PM 36.6625 -95.4017 120° Southeast 460 529 37,700 900 Climbing Kansas City Center
05:24PM 36.5969 -95.2636 121° Southeast 458 527 38,900 600 Climbing Kansas City Center
05:25PM 36.5275 -95.1167 120° Southeast 458 527 39,000  Climbing Kansas City Center
05:26PM 36.4658 -94.9892 121° Southeast 458 527 39,000  Level Kansas City Center
05:27PM 36.4014 -94.8569 121° Southeast 450 518 39,000  Level Kansas City Center
05:28PM 36.3375 -94.7236 121° Southeast 449 517 39,000  Level Kansas City Center
05:29PM 36.2731 -94.5894 121° Southeast 449 517 39,000  Level Kansas City Center
05:30PM 36.1936 -94.4286 121° Southeast 450 518 39,000  Level Kansas City Center
05:31PM 36.1414 -94.3206 121° Southeast 453 521 39,000  Level Memphis Center
05:32PM 36.0747 -94.1867 122° Southeast 453 521 39,000  Level Memphis Center
05:33PM 36.0103 -94.0517 121° Southeast 454 522 39,000  Level Memphis Center
05:34PM 35.9342 -93.8942 121° Southeast 453 521 39,000  Level Memphis Center
05:35PM 35.8697 -93.7639 121° Southeast 450 518 39,000  Level Memphis Center
05:36PM 35.8053 -93.6336 121° Southeast 449 517 39,000  Level Memphis Center
05:37PM 35.7397 -93.5039 122° Southeast 449 517 39,000  Level Memphis Center
05:38PM 35.6733 -93.3722 122° Southeast 449 517 39,000  Level Memphis Center
05:39PM 35.5942 -93.2142 122° Southeast 450 518 39,000  Level Memphis Center
05:40PM 35.5283 -93.0814 121° Southeast 452 520 39,000  Level Memphis Center
05:41PM 35.4608 -92.9492 122° Southeast 454 522 39,000  Level Memphis Center
05:42PM 35.3922 -92.8139 122° Southeast 458 527 39,000  Level Memphis Center
05:43PM 35.3181 -92.6683 122° Southeast 464 534 39,000  Level Memphis Center
05:44PM 35.2483 -92.5336 122° Southeast 464 534 39,000  Level Memphis Center
05:46PM 35.1794 -92.3969 122° Southeast 467 537 39,000  Level Memphis Center
05:47PM 35.1089 -92.2619 123° Southeast 469 540 39,000  Level Memphis Center
05:48PM 35.0383 -92.1261 122° Southeast 471 542 39,000  Level Memphis Center
05:49PM 34.9528 -91.9619 122° Southeast 475 547 39,000  Level Memphis Center
05:50PM 34.8825 -91.8292 123° Southeast 474 545 39,000  Level Memphis Center
05:51PM 34.8114 -91.6925 122° Southeast 466 536 39,000  Level Memphis Center
05:52PM 34.7439 -91.5639 123° Southeast 457 526 39,000  Level Memphis Center
05:53PM 34.6750 -91.4331 123° Southeast 457 526 39,000  Level Memphis Center
05:54PM 34.6039 -91.3014 123° Southeast 463 533 39,000  Level Memphis Center
05:55PM 34.5203 -91.1414 122° Southeast 467 537 39,000  Level Memphis Center
05:56PM 34.4478 -91.0069 123° Southeast 472 543 39,000  Level Memphis Center
05:57PM 34.3753 -90.8708 123° Southeast 480 552 39,000  Level Memphis Center
05:58PM 34.3025 -90.7353 123° Southeast 480 552 39,000  Level Memphis Center
05:59PM 34.2292 -90.6011 123° Southeast 481 554 39,000  Level Memphis Center
06:00PM 34.1569 -90.4686 123° Southeast 480 552 39,000  Level Memphis Center
06:01PM 34.0711 -90.3117 123° Southeast 475 547 39,000  Level Memphis Center
06:02PM 33.9983 -90.1794 124° Southeast 475 547 39,000  Level Memphis Center
06:03PM 33.9264 -90.0481 123° Southeast 475 547 39,000  Level Memphis Center
06:04PM 33.8531 -89.9153 124° Southeast 475 547 39,000  Level Memphis Center
06:05PM 33.7667 -89.7575 123° Southeast 478 550 39,000  Level Memphis Center
06:06PM 33.6917 -89.6214 123° Southeast 484 557 39,000  Level Memphis Center
06:07PM 33.6194 -89.4892 123° Southeast 483 556 39,000  Level Memphis Center
06:08PM 33.5464 -89.3589 124° Southeast 474 545 39,000  Level Memphis Center
06:09PM 33.4717 -89.2269 124° Southeast 475 547 39,000  Level Memphis Center
06:10PM 33.3972 -89.0961 124° Southeast 475 547 39,000  Level Memphis Center
06:11PM 33.3072 -88.9367 124° Southeast 477 549 39,000  Level Memphis Center
06:12PM 33.2317 -88.8044 124° Southeast 479 551 39,000  Level Memphis Center
06:13PM 33.1561 -88.6728 124° Southeast 480 552 39,000  Level Memphis Center
06:14PM 33.0814 -88.5419 124° Southeast 480 552 39,000  Level Memphis Center
06:16PM 33.0061 -88.4103 124° Southeast 480 552 39,000  Level Memphis Center
06:17PM 32.9156 -88.2531 124° Southeast 481 554 39,000  Level Memphis Center
06:18PM 32.8378 -88.1206 125° Southeast 484 557 39,000  Level Memphis Center
06:19PM 32.7614 -87.9872 124° Southeast 490 564 39,000  Level Memphis Center
06:20PM 32.6878 -87.8603 125° Southeast 490 564 39,000  Level Memphis Center
06:21PM 32.5981 -87.7050 124° Southeast 485 558 39,000  Level Atlanta Center
06:22PM 32.5183 -87.5736 126° Southeast 485 558 39,000  Level Atlanta Center
06:23PM 32.4486 -87.4553 125° Southeast 485 558 39,000  Level Atlanta Center
06:24PM 32.3608 -87.3042 124° Southeast 492 566 39,000  Level Atlanta Center
06:25PM 32.2789 -87.1686 126° Southeast 499 574 39,000  Level Atlanta Center
06:26PM 32.1986 -87.0333 125° Southeast 504 580 39,000  Level Atlanta Center
06:27PM 32.1164 -86.9006 126° Southeast 504 580 39,000  Level Atlanta Center
06:28PM 32.0381 -86.7658 124° Southeast 509 586 39,000  Level Atlanta Center
06:29PM 31.9553 -86.6311 126° Southeast 502 578 39,000  Level Atlanta Center
06:30PM 31.8292 -86.4258 126° Southeast 492 566 39,000  Level Jacksonville Center
06:31PM 31.7494 -86.2908 125° Southeast 498 573 39,000  Level Jacksonville Center
06:32PM 31.6672 -86.1586 126° Southeast 498 573 39,000  Level Jacksonville Center
06:33PM 31.5850 -86.0264 126° Southeast 498 573 39,000  Level Jacksonville Center
06:34PM 31.5028 -85.8919 126° Southeast 498 573 39,000  Level Jacksonville Center
06:35PM 31.4200 -85.7581 126° Southeast 505 581 39,000  Level Jacksonville Center
06:36PM 31.3375 -85.6242 126° Southeast 505 581 39,000  Level Jacksonville Center
06:37PM 31.2567 -85.4906 125° Southeast 510 587 39,000 -60 Level Jacksonville Center
06:38PM 31.1522 -85.3881 140° Southeast 487 560 38,900 -60 Descending Jacksonville Center
06:39PM 31.0433 -85.2981 145° Southeast 487 560 38,900  Level Jacksonville Center
06:40PM 30.9344 -85.2031 143° Southeast 487 560 39,000  Climbing Jacksonville Center
06:41PM 30.8214 -85.1083 144° Southeast 493 567 38,900  Descending Jacksonville Center
06:42PM 30.7061 -85.0139 145° Southeast 499 574 39,000  Climbing Jacksonville Center
06:43PM 30.5928 -84.9150 143° Southeast 510 587 39,000  Level Jacksonville Center
06:44PM 30.4775 -84.8183 144° Southeast 510 587 39,000  Level Jacksonville Center
06:45PM 30.3619 -84.7197 144° Southeast 515 593 39,000  Level Jacksonville Center
06:46PM 30.2486 -84.6214 143° Southeast 515 593 39,000  Level Jacksonville Center
06:47PM 30.1328 -84.5258 144° Southeast 510 587 39,000 -60 Level Jacksonville Center
06:48PM 30.0192 -84.4328 145° Southeast 510 587 38,900  Descending Jacksonville Center
06:49PM 29.9097 -84.3397 144° Southeast 510 587 39,000  Climbing Jacksonville Center
06:50PM 29.7981 -84.2472 144° Southeast 510 587 38,900  Descending Jacksonville Center
06:51PM 29.6861 -84.1572 145° Southeast 500 575 39,000  Climbing Jacksonville Center
06:52PM 29.5764 -84.0650 144° Southeast 500 575 39,000  Level Jacksonville Center
06:53PM 29.4644 -83.9731 144° Southeast 495 570 39,000  Level Jacksonville Center
06:54PM 29.3525 -83.8814 144° Southeast 495 570 39,000  Level Jacksonville Center
06:55PM 29.2403 -83.7875 144° Southeast 495 570 39,000  Level Jacksonville Center
06:56PM 29.1303 -83.6983 145° Southeast 495 570 39,000  Level Jacksonville Center
06:57PM 29.0203 -83.6072 144° Southeast 495 570 39,000  Level Jacksonville Center
06:58PM 28.9122 -83.5164 144° Southeast 495 570 39,000  Level Jacksonville Center
06:59PM 28.7978 -83.4256 145° Southeast 501 577 39,000  Level Jacksonville Center
07:00PM 28.6856 -83.3353 145° Southeast 501 577 39,000  Level Jacksonville Center
07:01PM 28.5753 -83.2447 144° Southeast 496 571 39,000  Level Jacksonville Center
07:02PM 28.4628 -83.1522 144° Southeast 496 571 39,000  Level Jacksonville Center
07:03PM 28.3583 -83.0742 147° Southeast 496 571 39,000  Level Jacksonville Center
07:04PM 28.2292 -82.9681 144° Southeast 491 565 39,000  Level Miami Center
07:05PM 28.1142 -82.8747 144° Southeast 503 579 39,000  Level Miami Center
07:06PM 27.9828 -82.7714 145° Southeast 503 579 39,000  Level Miami Center
07:08PM 27.8644 -82.7067 154° Southeast 502 578 39,000  Level Miami Center
07:09PM 27.7247 -82.6572 163° South 482 555 39,000  Level Miami Center
07:10PM 27.5972 -82.6086 161° South 482 555 39,000  Level Miami Center
07:11PM 27.4553 -82.5572 162° South 476 548 39,000 -480 Level Miami Center
07:12PM 27.3278 -82.5111 162° South 476 548 38,100 -1,260 Descending Miami Center
07:13PM 27.2064 -82.4656 162° South 471 542 36,500 -1,800 Descending Miami Center
07:14PM 27.0897 -82.4086 157° South 462 532 34,500 -1,800 Descending Miami Center
07:15PM 26.9942 -82.2875 132° Southeast 473 544 33,000 -960 Descending Miami Center
07:16PM 26.9083 -82.1764 131° Southeast 496 571 32,600 -1,380 Descending Miami Center
07:17PM 26.8125 -82.0606 133° Southeast 506 582 30,300 -2,400 Descending Miami Center
07:18PM 26.7161 -81.9492 134° Southeast 506 582 27,900 -2,700 Descending Miami Center
07:19PM 26.6222 -81.8336 132° Southeast 501 577 25,000 -2,460 Descending Miami Center
07:20PM 26.5258 -81.7206 134° Southeast 501 577 23,000 -1,200 Descending Miami Center
07:21PM 26.4314 -81.6078 133° Southeast 496 571 22,700 -1,440 Descending Miami Center
07:22PM 26.3450 -81.5022 132° Southeast 483 556 20,200 -2,760 Descending Miami Center
07:23PM 26.2503 -81.3897 133° Southeast 466 536 17,300 -3,060 Descending Miami Center
07:24PM 26.1656 -81.2894 133° Southeast 449 517 14,100 -2,700 Descending Miami Center
07:25PM 26.0911 -81.2033 134° Southeast 412 474 11,900 -2,040 Descending Miami Center
07:26PM 26.0286 -81.1269 132° Southeast 368 423 10,100 -1,260 Descending Miami Center
07:26PM 25.9919 -81.0911 139° Southeast 311 358 10,000 -120 Descending Miami Center
07:26PM 25.9697 -81.0650 133° Southeast 304 350 10,000  Level Miami Center
07:27PM 25.9761 -81.0650 360° North 318 366 10,000  Level Miami Center
07:28PM 25.9111 -80.9958 136° Southeast 296 341 10,000 -120 Level Miami Center
07:28PM 25.9194 -80.9986 343° North 306 352 9,900 -1,980 Descending Miami Center
07:29PM 25.8800 -80.9117 117° Southeast 309 356 8,000 -1,800 Descending Miami Center
07:29PM 25.8864 -80.9119 358° North 300 345 8,100 -2,460 Climbing Miami Center
07:30PM 25.8806 -80.8147 94° East 302 348 5,500 -2,460 Descending Miami Center
07:30PM 25.8825 -80.8217 287° West 289 333 5,600 -2,400 Climbing Miami Center
07:31PM 25.8894 -80.7228 86° East 282 325 3,100 -1,320 Descending Miami Center
07:32PM 25.8936 -80.6375 87° East 279 321 3,000  Descending Miami Center
07:32PM 25.8917 -80.6350 131° Southeast 279 321 3,100  Climbing Miami Center
07:33PM 25.8981 -80.5522 85° East 272 313 3,000 -600 Descending Miami Center
07:34PM 25.9042 -80.4714 85° East 269 310 2,000 -1,140 Descending Miami Center
07:34PM 25.9000 -80.4667 134° Southeast 268 308 1,900 -540 Descending Miami Center
07:35PM 25.9081 -80.3978 83° East 264 304 1,500 -420 Descending Miami Center
07:35PM 25.9081 -80.3931 90° East 206 237 1,500 -540 Level Miami Center
07:36PM 25.9092 -80.3469 88° East 214 246 1,000 -540 Descending Miami Center
07:36PM 25.9072 -80.3422 115° Southeast 142 163 1,000  Level Miami Center
07:38PM 25.9074 -80.2782 10° North  Level Estimated
07:45PM 25.9074 -80.2782 10° North  Level Estimated